Time;durP1;ratioP1;P1;durP2;ratioP2;P2;SDS_P1;SDS_P2;PMS_P1;PMS_P2;Temp;Humidity;BMP_temperature;BMP_pressure;BME280_temperature;BME280_humidity;BME280_pressure;Samples;Min_cycle;Max_cycle;Signal;HPM_P1;HPM_P2
2022/08/29 00:01:12;;;;;;;4.73;3.33;;;;;;;;;;5115454;28;20715;-51
2022/08/29 00:03:38;;;;;;;4.87;3.30;;;;;;;;;;5115323;28;20645;-50
2022/08/29 00:06:05;;;;;;;7.77;3.50;;;;;;;;;;5115218;28;20759;-49
2022/08/29 00:08:32;;;;;;;5.80;3.57;;;;;;;;;;5115169;28;20237;-49
2022/08/29 00:10:58;;;;;;;7.33;3.57;;;;;;;;;;5115389;28;20210;-47
2022/08/29 00:13:24;;;;;;;6.93;3.60;;;;;;;;;;5115216;28;20571;-48
2022/08/29 00:15:50;;;;;;;6.13;3.43;;;;;;;;;;5115367;28;20247;-49
2022/08/29 00:18:17;;;;;;;4.77;3.47;;;;;;;;;;5115079;28;20232;-47
2022/08/29 00:20:43;;;;;;;5.63;3.60;;;;;;;;;;5113854;28;20198;-48
2022/08/29 00:23:09;;;;;;;4.50;3.43;;;;;;;;;;5115159;28;20191;-49
2022/08/29 00:25:37;;;;;;;7.90;3.70;;;;;;;;;;5115264;28;20703;-49
2022/08/29 00:28:03;;;;;;;5.77;3.43;;;;;;;;;;5115087;28;20221;-47
2022/08/29 00:30:29;;;;;;;5.70;3.33;;;;;;;;;;5114754;28;20197;-47
2022/08/29 00:32:55;;;;;;;4.80;3.40;;;;;;;;;;5114134;28;20218;-47
2022/08/29 00:35:23;;;;;;;6.30;3.67;;;;;;;;;;5114950;28;20206;-47
2022/08/29 00:37:53;;;;;;;6.90;3.77;;;;;;;;;;5114681;28;20315;-47
2022/08/29 00:40:20;;;;;;;10.50;4.17;;;;;;;;;;5114626;28;20202;-47
2022/08/29 00:42:48;;;;;;;8.87;4.03;;;;;;;;;;5114652;28;20189;-49
2022/08/29 00:45:16;;;;;;;5.07;3.23;;;;;;;;;;5114778;28;20279;-47
2022/08/29 00:47:44;;;;;;;6.27;3.30;;;;;;;;;;5114523;28;20580;-47
2022/08/29 00:50:15;;;;;;;6.70;3.63;;;;;;;;;;5114711;28;20281;-47
2022/08/29 00:52:42;;;;;;;5.40;3.60;;;;;;;;;;5114414;28;20291;-47
2022/08/29 00:55:11;;;;;;;6.87;3.97;;;;;;;;;;5114282;28;20194;-47
2022/08/29 00:57:39;;;;;;;9.73;3.63;;;;;;;;;;5114575;28;20222;-47
2022/08/29 01:00:08;;;;;;;8.07;3.70;;;;;;;;;;5114438;28;20198;-47
2022/08/29 01:02:34;;;;;;;10.03;4.17;;;;;;;;;;5114240;28;20202;-47
2022/08/29 01:05:00;;;;;;;6.17;3.70;;;;;;;;;;5114070;28;20255;-47
2022/08/29 01:07:26;;;;;;;7.63;3.83;;;;;;;;;;5113660;28;20715;-47
2022/08/29 01:09:52;;;;;;;8.57;3.80;;;;;;;;;;5113153;28;20610;-47
2022/08/29 01:12:19;;;;;;;10.07;4.67;;;;;;;;;;5114249;28;20225;-47
2022/08/29 01:14:48;;;;;;;5.60;3.53;;;;;;;;;;5113969;28;20212;-47
2022/08/29 01:17:17;;;;;;;8.07;3.60;;;;;;;;;;5114249;28;20194;-47
2022/08/29 01:19:45;;;;;;;5.40;3.37;;;;;;;;;;5113850;28;20645;-47
2022/08/29 01:22:28;;;;;;;5.17;3.50;;;;;;;;;;5114133;28;20186;-47
2022/08/29 01:24:56;;;;;;;4.83;3.40;;;;;;;;;;5114159;28;20656;-47
2022/08/29 01:27:26;;;;;;;8.13;4.20;;;;;;;;;;5113813;28;20296;-47
2022/08/29 01:29:52;;;;;;;6.17;3.80;;;;;;;;;;5114017;28;20290;-48
2022/08/29 01:32:18;;;;;;;7.53;4.03;;;;;;;;;;5113758;28;20296;-48
2022/08/29 01:34:44;;;;;;;5.30;3.73;;;;;;;;;;5113513;28;20206;-48
2022/08/29 01:37:11;;;;;;;7.57;3.87;;;;;;;;;;5113982;28;20720;-48
2022/08/29 01:39:38;;;;;;;5.17;3.37;;;;;;;;;;5113553;28;20190;-48
2022/08/29 01:42:09;;;;;;;6.00;3.60;;;;;;;;;;5113678;28;20190;-49
2022/08/29 01:44:35;;;;;;;7.57;3.60;;;;;;;;;;5113555;28;20218;-48
2022/08/29 01:47:03;;;;;;;9.83;4.40;;;;;;;;;;5113632;28;20247;-48
2022/08/29 01:49:30;;;;;;;8.10;4.43;;;;;;;;;;5113243;28;20553;-48
2022/08/29 01:51:56;;;;;;;6.37;3.80;;;;;;;;;;5112963;28;20278;-48
2022/08/29 01:54:22;;;;;;;5.80;4.00;;;;;;;;;;5113550;28;20380;-48
2022/08/29 01:56:49;;;;;;;6.50;4.20;;;;;;;;;;5113305;28;20273;-48
2022/08/29 01:59:17;;;;;;;10.50;4.00;;;;;;;;;;5113073;28;20213;-48
2022/08/29 02:01:47;;;;;;;8.50;4.00;;;;;;;;;;5112322;28;20198;-49
2022/08/29 02:04:14;;;;;;;8.07;3.83;;;;;;;;;;5111950;28;20225;-48
2022/08/29 02:06:40;;;;;;;6.27;3.93;;;;;;;;;;5112241;28;20321;-48
2022/08/29 02:09:06;;;;;;;4.47;3.63;;;;;;;;;;5112767;28;20202;-48
2022/08/29 02:11:35;;;;;;;6.30;3.77;;;;;;;;;;5112306;28;20214;-48
2022/08/29 02:14:02;;;;;;;5.23;3.50;;;;;;;;;;5112858;28;20236;-48
2022/08/29 02:16:30;;;;;;;7.67;4.20;;;;;;;;;;5112824;28;20194;-48
2022/08/29 02:18:57;;;;;;;5.93;3.93;;;;;;;;;;5111782;28;20205;-48
2022/08/29 02:21:24;;;;;;;5.00;3.57;;;;;;;;;;5110873;28;20201;-49
2022/08/29 02:23:51;;;;;;;8.80;4.33;;;;;;;;;;5111398;28;20247;-49
2022/08/29 02:26:17;;;;;;;7.97;4.30;;;;;;;;;;5112006;28;20194;-49
2022/08/29 02:28:43;;;;;;;9.33;4.37;;;;;;;;;;5111016;28;20285;-48
2022/08/29 02:31:09;;;;;;;8.00;4.50;;;;;;;;;;5110675;28;20235;-48
2022/08/29 02:33:37;;;;;;;5.90;4.07;;;;;;;;;;5110801;28;20200;-48
2022/08/29 02:36:04;;;;;;;6.90;4.20;;;;;;;;;;5111394;28;20206;-48
2022/08/29 02:38:30;;;;;;;6.13;3.80;;;;;;;;;;5112351;28;20206;-48
2022/08/29 02:40:56;;;;;;;7.10;3.70;;;;;;;;;;5112040;28;20213;-48
2022/08/29 02:43:23;;;;;;;7.20;4.47;;;;;;;;;;5112330;28;20205;-48
2022/08/29 02:45:49;;;;;;;8.37;4.20;;;;;;;;;;5112541;28;20569;-49
2022/08/29 02:48:15;;;;;;;5.37;4.23;;;;;;;;;;5112410;28;20380;-48
2022/08/29 02:50:44;;;;;;;7.83;4.33;;;;;;;;;;5111584;28;20201;-47
2022/08/29 02:53:11;;;;;;;8.63;4.00;;;;;;;;;;5112389;28;20553;-49
2022/08/29 02:55:37;;;;;;;5.90;4.20;;;;;;;;;;5112181;28;20208;-48
2022/08/29 02:58:03;;;;;;;8.00;4.60;;;;;;;;;;5112042;28;20671;-48
2022/08/29 03:00:29;;;;;;;9.10;4.20;;;;;;;;;;5112090;28;20239;-48
2022/08/29 03:02:56;;;;;;;4.50;3.57;;;;;;;;;;5112219;28;20248;-48
2022/08/29 03:05:23;;;;;;;7.03;4.10;;;;;;;;;;5111384;28;20205;-48
2022/08/29 03:07:51;;;;;;;9.23;4.23;;;;;;;;;;5111309;28;20636;-48
2022/08/29 03:10:17;;;;;;;9.63;4.33;;;;;;;;;;5110661;28;20664;-48
2022/08/29 03:12:43;;;;;;;9.83;4.47;;;;;;;;;;5110312;28;20284;-48
2022/08/29 03:15:10;;;;;;;8.43;4.37;;;;;;;;;;5111756;28;20202;-48
2022/08/29 03:17:36;;;;;;;7.97;4.03;;;;;;;;;;5110698;28;20198;-48
2022/08/29 03:20:02;;;;;;;7.03;3.93;;;;;;;;;;5111178;28;20198;-48
2022/08/29 03:22:28;;;;;;;8.43;4.70;;;;;;;;;;5110912;28;20621;-48
2022/08/29 03:24:56;;;;;;;8.67;4.03;;;;;;;;;;5111704;28;20293;-48
2022/08/29 03:27:22;;;;;;;7.50;3.40;;;;;;;;;;5111577;28;20292;-48
2022/08/29 03:29:48;;;;;;;9.60;4.37;;;;;;;;;;5111683;28;20240;-48
2022/08/29 03:32:14;;;;;;;6.07;4.37;;;;;;;;;;5110905;28;20297;-48
2022/08/29 03:34:40;;;;;;;6.73;3.83;;;;;;;;;;5111182;28;20254;-48
2022/08/29 03:37:06;;;;;;;6.00;4.07;;;;;;;;;;5110309;28;20741;-48
2022/08/29 03:39:34;;;;;;;6.17;4.40;;;;;;;;;;5111678;28;20229;-48
2022/08/29 03:42:01;;;;;;;10.60;4.30;;;;;;;;;;5111325;28;20205;-48
2022/08/29 03:44:27;;;;;;;7.07;4.10;;;;;;;;;;5111021;28;20638;-48
2022/08/29 03:46:53;;;;;;;7.33;4.10;;;;;;;;;;5110200;28;20285;-48
2022/08/29 03:49:19;;;;;;;7.10;4.67;;;;;;;;;;5110048;28;20194;-48
2022/08/29 03:51:45;;;;;;;9.73;4.50;;;;;;;;;;5110767;28;20255;-48
2022/08/29 03:54:11;;;;;;;8.23;4.40;;;;;;;;;;5111393;28;20194;-49
2022/08/29 03:56:38;;;;;;;8.07;4.80;;;;;;;;;;5111338;28;20201;-48
2022/08/29 03:59:05;;;;;;;7.10;4.63;;;;;;;;;;5111608;28;20201;-48
2022/08/29 04:01:32;;;;;;;6.57;4.07;;;;;;;;;;5111292;28;20221;-48
2022/08/29 04:03:58;;;;;;;8.77;4.17;;;;;;;;;;5111668;28;20190;-48
2022/08/29 04:06:27;;;;;;;8.03;4.27;;;;;;;;;;5110904;28;20638;-48
2022/08/29 04:08:53;;;;;;;9.53;3.87;;;;;;;;;;5111505;28;20642;-48
2022/08/29 04:11:19;;;;;;;8.70;3.83;;;;;;;;;;5111526;28;20186;-48
2022/08/29 04:13:47;;;;;;;7.37;4.33;;;;;;;;;;5111375;28;20225;-47
2022/08/29 04:16:15;;;;;;;4.90;3.90;;;;;;;;;;5111246;28;20567;-47
2022/08/29 04:18:41;;;;;;;7.53;3.97;;;;;;;;;;5111267;28;20233;-48
2022/08/29 04:21:08;;;;;;;10.30;4.20;;;;;;;;;;5111243;28;20233;-48
2022/08/29 04:23:35;;;;;;;6.77;3.97;;;;;;;;;;5110908;28;20559;-48
2022/08/29 04:26:01;;;;;;;6.83;4.07;;;;;;;;;;5110869;28;20310;-48
2022/08/29 04:28:27;;;;;;;7.70;4.33;;;;;;;;;;5111079;28;20218;-49
2022/08/29 04:30:53;;;;;;;10.43;4.50;;;;;;;;;;5111212;28;20231;-49
2022/08/29 04:33:22;;;;;;;7.70;4.53;;;;;;;;;;5111109;28;20226;-48
2022/08/29 04:35:48;;;;;;;6.27;4.13;;;;;;;;;;5111015;28;20202;-49
2022/08/29 04:38:14;;;;;;;7.60;4.10;;;;;;;;;;5110732;28;20190;-48
2022/08/29 04:40:41;;;;;;;7.00;4.20;;;;;;;;;;5110784;28;20202;-49
2022/08/29 04:43:07;;;;;;;8.67;4.40;;;;;;;;;;5110490;28;20236;-49
2022/08/29 04:45:34;;;;;;;7.63;4.53;;;;;;;;;;5114301;28;20202;-48
2022/08/29 04:48:00;;;;;;;8.53;4.07;;;;;;;;;;5114766;28;20202;-48
2022/08/29 04:50:28;;;;;;;7.50;4.37;;;;;;;;;;5114596;28;20202;-48
2022/08/29 04:52:54;;;;;;;8.47;4.67;;;;;;;;;;5114477;28;20584;-48
2022/08/29 04:55:21;;;;;;;6.83;4.43;;;;;;;;;;5114624;28;20198;-53
2022/08/29 04:57:49;;;;;;;10.37;4.30;;;;;;;;;;5114129;28;20241;-48
2022/08/29 05:00:16;;;;;;;6.67;4.33;;;;;;;;;;5114376;28;20218;-48
2022/08/29 05:02:43;;;;;;;7.70;4.67;;;;;;;;;;5114340;28;20627;-48
2022/08/29 05:05:10;;;;;;;9.23;4.87;;;;;;;;;;5114306;28;20206;-48
2022/08/29 05:07:37;;;;;;;9.83;4.67;;;;;;;;;;5113523;28;20759;-48
2022/08/29 05:10:08;;;;;;;7.80;4.50;;;;;;;;;;5113943;28;20676;-49
2022/08/29 05:12:35;;;;;;;7.33;4.00;;;;;;;;;;5112764;28;20306;-48
2022/08/29 05:15:01;;;;;;;10.00;4.90;;;;;;;;;;5113420;28;20555;-48
2022/08/29 05:17:27;;;;;;;8.80;4.20;;;;;;;;;;5113749;28;20224;-48
2022/08/29 05:19:53;;;;;;;10.40;5.00;;;;;;;;;;5113815;28;20301;-48
2022/08/29 05:22:20;;;;;;;10.03;4.93;;;;;;;;;;5113627;28;20753;-48
2022/08/29 05:24:48;;;;;;;8.30;5.00;;;;;;;;;;5113497;28;20628;-48
2022/08/29 05:27:15;;;;;;;11.17;4.17;;;;;;;;;;5113876;28;20289;-48
2022/08/29 05:29:43;;;;;;;9.80;5.00;;;;;;;;;;5113362;28;20254;-48
2022/08/29 05:32:09;;;;;;;7.80;4.60;;;;;;;;;;5113731;28;20236;-48
2022/08/29 05:34:36;;;;;;;7.90;4.63;;;;;;;;;;5113341;28;20229;-48
2022/08/29 05:37:03;;;;;;;8.00;4.77;;;;;;;;;;5112871;28;20194;-48
2022/08/29 05:39:29;;;;;;;9.63;4.80;;;;;;;;;;5113411;28;20198;-47
2022/08/29 05:41:57;;;;;;;10.00;4.23;;;;;;;;;;5113289;28;20195;-48
2022/08/29 05:44:23;;;;;;;7.73;4.43;;;;;;;;;;5112589;28;20202;-47
2022/08/29 05:46:49;;;;;;;9.87;4.40;;;;;;;;;;5113242;28;20225;-47
2022/08/29 05:49:15;;;;;;;9.20;4.67;;;;;;;;;;5113560;28;20194;-48
2022/08/29 05:51:41;;;;;;;5.77;4.20;;;;;;;;;;5113019;28;20263;-48
2022/08/29 05:54:07;;;;;;;9.20;4.57;;;;;;;;;;5112008;28;20229;-48
2022/08/29 05:56:34;;;;;;;6.63;3.93;;;;;;;;;;5111281;28;20217;-47
2022/08/29 05:59:01;;;;;;;7.83;4.93;;;;;;;;;;5113338;28;20202;-48
2022/08/29 06:01:29;;;;;;;9.60;4.90;;;;;;;;;;5113389;28;20293;-48
2022/08/29 06:03:55;;;;;;;8.77;4.60;;;;;;;;;;5113520;28;20281;-48
2022/08/29 06:06:22;;;;;;;7.43;5.00;;;;;;;;;;5113072;28;20234;-48
2022/08/29 06:08:48;;;;;;;11.57;4.73;;;;;;;;;;5112859;28;20190;-48
2022/08/29 06:11:15;;;;;;;8.53;5.00;;;;;;;;;;5112942;28;20251;-48
2022/08/29 06:13:41;;;;;;;7.77;4.47;;;;;;;;;;5112840;28;20225;-47
2022/08/29 06:16:11;;;;;;;10.03;5.17;;;;;;;;;;5112971;28;20198;-47
2022/08/29 06:18:37;;;;;;;12.37;4.90;;;;;;;;;;5112891;28;20202;-47
2022/08/29 06:21:04;;;;;;;9.53;4.43;;;;;;;;;;5112328;28;20302;-47
2022/08/29 06:23:30;;;;;;;13.13;5.33;;;;;;;;;;5112553;28;20189;-47
2022/08/29 06:25:56;;;;;;;13.10;5.23;;;;;;;;;;5112646;28;20198;-46
2022/08/29 06:28:22;;;;;;;16.30;5.17;;;;;;;;;;5112796;28;20194;-47
2022/08/29 06:30:48;;;;;;;17.37;6.77;;;;;;;;;;5112310;28;20251;-47
2022/08/29 06:33:16;;;;;;;16.07;6.03;;;;;;;;;;5112419;28;20222;-47
2022/08/29 06:35:42;;;;;;;16.80;5.97;;;;;;;;;;5112421;28;20207;-47
2022/08/29 06:38:08;;;;;;;14.53;6.20;;;;;;;;;;5111440;28;20264;-47
2022/08/29 06:40:34;;;;;;;18.00;6.97;;;;;;;;;;5111651;28;20293;-47
2022/08/29 06:42:59;;;;;;;16.17;7.23;;;;;;;;;;5112202;28;20194;-47
2022/08/29 06:45:25;;;;;;;21.90;7.43;;;;;;;;;;5112358;28;20630;-50
2022/08/29 06:47:51;;;;;;;15.23;7.60;;;;;;;;;;5112176;28;20239;-46
2022/08/29 06:50:19;;;;;;;20.17;8.00;;;;;;;;;;5112414;28;20243;-46
2022/08/29 06:52:45;;;;;;;17.47;7.17;;;;;;;;;;5110884;28;20233;-47
2022/08/29 06:55:11;;;;;;;20.07;7.83;;;;;;;;;;5111211;28;20191;-48
2022/08/29 06:57:41;;;;;;;15.80;6.90;;;;;;;;;;5111424;28;20660;-48
2022/08/29 07:00:09;;;;;;;17.53;8.00;;;;;;;;;;5111661;28;20656;-48
2022/08/29 07:02:36;;;;;;;18.27;7.77;;;;;;;;;;5111858;28;20194;-48
2022/08/29 07:05:02;;;;;;;16.17;7.23;;;;;;;;;;5111983;28;20190;-48
2022/08/29 07:07:29;;;;;;;18.53;7.43;;;;;;;;;;5110697;28;20253;-48
2022/08/29 07:09:55;;;;;;;25.40;8.00;;;;;;;;;;5111136;28;20195;-48
2022/08/29 07:12:22;;;;;;;16.77;6.60;;;;;;;;;;5110434;28;20233;-49
2022/08/29 07:14:48;;;;;;;20.10;7.97;;;;;;;;;;5111008;28;20228;-48
2022/08/29 07:17:14;;;;;;;17.77;7.47;;;;;;;;;;5111012;28;20195;-48
2022/08/29 07:19:40;;;;;;;18.87;7.67;;;;;;;;;;5110968;28;20236;-49
2022/08/29 07:22:06;;;;;;;21.13;8.07;;;;;;;;;;5111331;28;20224;-48
2022/08/29 07:24:33;;;;;;;23.43;7.87;;;;;;;;;;5110979;28;20273;-48
2022/08/29 07:27:00;;;;;;;29.33;7.27;;;;;;;;;;5111321;28;20690;-48
2022/08/29 07:29:26;;;;;;;24.40;7.77;;;;;;;;;;5111293;28;20199;-48
2022/08/29 07:31:53;;;;;;;14.17;6.33;;;;;;;;;;5110364;28;20253;-48
2022/08/29 07:34:19;;;;;;;19.47;6.87;;;;;;;;;;5110213;28;20305;-49
2022/08/29 07:36:45;;;;;;;24.53;7.30;;;;;;;;;;5110838;28;20190;-48
2022/08/29 07:39:12;;;;;;;23.83;7.67;;;;;;;;;;5111402;28;20198;-47
2022/08/29 07:41:40;;;;;;;17.83;7.10;;;;;;;;;;5111428;28;20194;-48
2022/08/29 07:44:07;;;;;;;21.60;6.97;;;;;;;;;;5111378;28;20202;-47
2022/08/29 07:46:34;;;;;;;19.47;6.47;;;;;;;;;;5110973;28;20194;-48
2022/08/29 07:49:00;;;;;;;21.50;6.50;;;;;;;;;;5110933;28;20209;-48
2022/08/29 07:51:26;;;;;;;17.63;6.37;;;;;;;;;;5111009;28;20195;-48
2022/08/29 07:53:52;;;;;;;19.03;6.00;;;;;;;;;;5109139;28;20240;-48
2022/08/29 07:56:21;;;;;;;14.17;5.77;;;;;;;;;;5111231;28;20194;-48
2022/08/29 07:58:48;;;;;;;11.87;5.20;;;;;;;;;;5110593;28;20210;-48
2022/08/29 08:01:14;;;;;;;14.80;6.13;;;;;;;;;;5111375;28;20669;-48
2022/08/29 08:03:41;;;;;;;13.97;5.83;;;;;;;;;;5107620;28;20197;-48
2022/08/29 08:06:08;;;;;;;14.93;6.13;;;;;;;;;;5111333;28;20785;-48
2022/08/29 08:08:34;;;;;;;19.97;5.83;;;;;;;;;;5111401;28;20229;-48
2022/08/29 08:11:02;;;;;;;13.10;6.10;;;;;;;;;;5111036;28;20188;-48
2022/08/29 08:13:28;;;;;;;12.77;5.93;;;;;;;;;;5111080;28;20215;-48
2022/08/29 08:15:55;;;;;;;17.07;5.70;;;;;;;;;;5110636;28;20198;-48
2022/08/29 08:18:21;;;;;;;12.10;6.10;;;;;;;;;;5112035;28;20675;-48
2022/08/29 08:20:47;;;;;;;16.73;5.57;;;;;;;;;;5115421;28;20203;-48
2022/08/29 08:23:14;;;;;;;14.90;5.30;;;;;;;;;;5115278;28;20661;-48
2022/08/29 08:25:41;;;;;;;13.10;5.63;;;;;;;;;;5115102;28;20206;-48
2022/08/29 08:28:07;;;;;;;15.60;6.60;;;;;;;;;;5115129;28;20486;-48
2022/08/29 08:30:33;;;;;;;13.23;5.17;;;;;;;;;;5114796;28;20679;-48
2022/08/29 08:33:00;;;;;;;12.80;5.50;;;;;;;;;;5115062;28;20222;-48
2022/08/29 08:35:26;;;;;;;12.23;5.60;;;;;;;;;;5115080;28;20206;-48
2022/08/29 08:37:52;;;;;;;12.03;5.40;;;;;;;;;;5113692;28;20282;-47
2022/08/29 08:40:22;;;;;;;9.17;4.67;;;;;;;;;;5114925;28;20228;-48
2022/08/29 08:42:48;;;;;;;10.53;5.13;;;;;;;;;;5114393;28;20210;-48
2022/08/29 08:45:16;;;;;;;10.20;4.70;;;;;;;;;;5114174;28;20198;-48
2022/08/29 08:47:44;;;;;;;11.50;4.57;;;;;;;;;;5114494;28;20285;-48
2022/08/29 08:50:18;;;;;;;11.37;5.10;;;;;;;;;;5114658;28;20241;-48
2022/08/29 08:52:45;;;;;;;8.47;4.80;;;;;;;;;;5114374;28;20257;-48
2022/08/29 08:55:17;;;;;;;13.50;5.37;;;;;;;;;;5114577;28;20263;-48
2022/08/29 08:57:46;;;;;;;10.20;4.93;;;;;;;;;;5114202;28;20337;-48
2022/08/29 09:00:12;;;;;;;11.10;4.53;;;;;;;;;;5114337;28;20226;-48
2022/08/29 09:02:46;;;;;;;13.83;5.30;;;;;;;;;;5113684;28;20197;-48
2022/08/29 09:05:24;;;;;;;8.67;4.10;;;;;;;;;;5109303;28;20216;-47
2022/08/29 09:07:52;;;;;;;8.60;4.27;;;;;;;;;;5114033;28;20238;-47
2022/08/29 09:10:23;;;;;;;13.03;4.90;;;;;;;;;;5114076;28;20201;-47
2022/08/29 09:12:57;;;;;;;12.00;4.77;;;;;;;;;;5103127;28;20226;-48
2022/08/29 09:15:24;;;;;;;9.17;4.33;;;;;;;;;;5093838;28;20183;-47
2022/08/29 09:17:52;;;;;;;9.70;4.80;;;;;;;;;;5092672;28;20203;-47
2022/08/29 09:20:21;;;;;;;14.10;5.97;;;;;;;;;;5093522;28;20203;-47
2022/08/29 09:22:52;;;;;;;10.67;4.80;;;;;;;;;;5093082;28;20266;-47
2022/08/29 09:25:18;;;;;;;11.77;6.07;;;;;;;;;;5093621;28;20201;-49
2022/08/29 09:27:44;;;;;;;11.83;4.50;;;;;;;;;;5093335;28;20296;-48
2022/08/29 09:30:11;;;;;;;11.57;4.83;;;;;;;;;;5092667;28;20195;-47
2022/08/29 09:32:51;;;;;;;10.57;5.20;;;;;;;;;;5093333;28;20222;-47
2022/08/29 09:35:23;;;;;;;12.13;4.60;;;;;;;;;;5092803;28;20304;-47
2022/08/29 09:37:55;;;;;;;10.57;3.83;;;;;;;;;;5092939;28;20699;-46
2022/08/29 09:40:22;;;;;;;9.20;3.87;;;;;;;;;;5093287;28;20197;-47
2022/08/29 09:42:50;;;;;;;9.13;4.33;;;;;;;;;;5091867;28;20206;-48
2022/08/29 09:45:20;;;;;;;7.90;4.37;;;;;;;;;;5093117;28;20345;-48
2022/08/29 09:47:46;;;;;;;8.53;4.07;;;;;;;;;;5092594;28;20198;-47
2022/08/29 09:50:18;;;;;;;5.63;3.57;;;;;;;;;;5092893;28;20188;-48
2022/08/29 09:52:51;;;;;;;6.37;4.20;;;;;;;;;;5092969;28;20237;-48
2022/08/29 09:55:19;;;;;;;7.03;4.27;;;;;;;;;;5093101;28;20192;-48
2022/08/29 09:57:49;;;;;;;8.50;3.80;;;;;;;;;;5092751;28;20654;-48
2022/08/29 10:00:16;;;;;;;8.17;3.93;;;;;;;;;;5092882;28;20193;-48
2022/08/29 10:02:46;;;;;;;4.83;3.83;;;;;;;;;;5092219;28;20191;-47
2022/08/29 10:05:27;;;;;;;5.77;3.40;;;;;;;;;;5090772;28;20681;-48
2022/08/29 10:07:56;;;;;;;6.67;3.70;;;;;;;;;;5092098;28;20254;-48
2022/08/29 10:10:24;;;;;;;6.67;3.47;;;;;;;;;;5091731;28;20199;-48
2022/08/29 10:12:54;;;;;;;7.97;3.73;;;;;;;;;;5092201;28;20229;-47
2022/08/29 10:15:22;;;;;;;7.00;3.83;;;;;;;;;;5092419;28;20200;-47
2022/08/29 10:20:43;;;;;;;7.97;3.47;;;;;;;;;;5092669;28;20228;-48
2022/08/29 10:23:14;;;;;;;9.03;3.73;;;;;;;;;;5092484;28;20193;-47
2022/08/29 10:25:41;;;;;;;7.67;3.27;;;;;;;;;;5092346;28;20212;-48
2022/08/29 10:28:11;;;;;;;6.23;3.70;;;;;;;;;;5092617;28;20202;-46
2022/08/29 10:30:43;;;;;;;6.57;3.30;;;;;;;;;;5092294;28;20197;-47
2022/08/29 10:33:16;;;;;;;6.53;3.40;;;;;;;;;;5092405;28;20225;-48
2022/08/29 10:35:48;;;;;;;6.50;3.33;;;;;;;;;;5092221;28;20219;-47
2022/08/29 10:38:20;;;;;;;5.23;3.23;;;;;;;;;;5092288;28;20255;-48
2022/08/29 10:40:48;;;;;;;6.60;3.10;;;;;;;;;;5092051;28;20285;-48
2022/08/29 10:43:19;;;;;;;5.30;2.87;;;;;;;;;;5091810;28;20198;-47
2022/08/29 10:45:51;;;;;;;5.03;2.93;;;;;;;;;;5091805;28;20216;-48
2022/08/29 10:48:20;;;;;;;4.93;3.00;;;;;;;;;;5091871;28;20207;-48
2022/08/29 10:50:50;;;;;;;4.60;2.70;;;;;;;;;;5091977;28;20307;-48
2022/08/29 10:53:19;;;;;;;4.30;2.83;;;;;;;;;;5090157;28;20234;-47
2022/08/29 10:55:48;;;;;;;6.07;2.83;;;;;;;;;;5091775;28;20259;-47
2022/08/29 10:58:19;;;;;;;7.77;2.70;;;;;;;;;;5091859;28;20651;-48
2022/08/29 11:00:48;;;;;;;5.50;2.13;;;;;;;;;;5091744;28;20212;-48
2022/08/29 11:03:19;;;;;;;4.30;2.60;;;;;;;;;;5086187;28;20278;-46
2022/08/29 11:05:49;;;;;;;6.17;2.30;;;;;;;;;;5091165;28;20215;-48
2022/08/29 11:08:17;;;;;;;5.33;2.50;;;;;;;;;;5091025;28;20597;-47
2022/08/29 11:10:48;;;;;;;4.47;2.40;;;;;;;;;;5090821;28;20214;-47
2022/08/29 11:13:17;;;;;;;5.33;2.73;;;;;;;;;;5090697;28;20254;-48
2022/08/29 11:15:45;;;;;;;7.10;2.80;;;;;;;;;;5091198;28;20213;-48
2022/08/29 11:18:16;;;;;;;4.00;2.83;;;;;;;;;;5091280;28;20199;-48
2022/08/29 11:20:44;;;;;;;3.50;2.40;;;;;;;;;;5090376;28;20740;-48
2022/08/29 11:23:15;;;;;;;5.70;2.50;;;;;;;;;;5090634;28;20181;-47
2022/08/29 11:25:42;;;;;;;2.57;2.23;;;;;;;;;;5090999;28;20249;-48
2022/08/29 11:28:13;;;;;;;4.53;2.10;;;;;;;;;;5090257;28;20626;-49
2022/08/29 11:30:41;;;;;;;4.87;2.70;;;;;;;;;;5090847;28;20677;-47
2022/08/29 11:33:11;;;;;;;3.90;2.30;;;;;;;;;;5091059;28;20229;-51
2022/08/29 11:35:43;;;;;;;3.33;2.27;;;;;;;;;;5091015;28;20198;-49
2022/08/29 11:38:24;;;;;;;4.07;2.33;;;;;;;;;;5090886;28;20204;-47
2022/08/29 11:40:57;;;;;;;3.07;2.03;;;;;;;;;;5089482;28;20298;-47
2022/08/29 11:43:26;;;;;;;4.07;2.40;;;;;;;;;;5091231;28;20649;-48
2022/08/29 11:45:56;;;;;;;5.67;2.10;;;;;;;;;;5090908;28;20289;-47
2022/08/29 11:48:30;;;;;;;4.47;2.10;;;;;;;;;;5091117;28;20199;-48
2022/08/29 11:50:56;;;;;;;6.03;2.47;;;;;;;;;;5090789;28;20202;-48
2022/08/29 11:53:32;;;;;;;3.10;1.90;;;;;;;;;;5092712;28;20229;-49
2022/08/29 11:56:22;;;;;;;5.27;2.30;;;;;;;;;;5095030;28;20655;-46
2022/08/29 11:58:51;;;;;;;4.47;2.10;;;;;;;;;;5093914;28;20201;-48
2022/08/29 12:01:32;;;;;;;5.03;2.13;;;;;;;;;;5094746;28;20190;-48
2022/08/29 12:03:59;;;;;;;5.90;1.93;;;;;;;;;;5085932;28;20210;-48
2022/08/29 12:06:28;;;;;;;3.50;1.80;;;;;;;;;;5094581;28;20246;-48
2022/08/29 12:08:56;;;;;;;3.47;2.10;;;;;;;;;;5094672;28;20194;-46
2022/08/29 12:11:22;;;;;;;2.70;1.70;;;;;;;;;;5094984;28;20195;-48
2022/08/29 12:13:59;;;;;;;2.60;1.80;;;;;;;;;;5091257;28;20254;-48
2022/08/29 12:16:26;;;;;;;2.53;1.60;;;;;;;;;;5094192;28;20212;-47
2022/08/29 12:18:53;;;;;;;6.63;1.57;;;;;;;;;;5094547;28;20225;-47
2022/08/29 12:21:47;;;;;;;2.70;1.30;;;;;;;;;;5094757;28;20254;-48
2022/08/29 12:24:32;;;;;;;1.60;1.40;;;;;;;;;;5095163;28;20200;-48
2022/08/29 12:26:58;;;;;;;2.17;1.60;;;;;;;;;;5095020;28;20189;-47
2022/08/29 12:29:26;;;;;;;2.43;1.70;;;;;;;;;;5094713;28;20228;-48
2022/08/29 12:32:16;;;;;;;3.23;1.83;;;;;;;;;;5094794;28;20214;-48
2022/08/29 12:34:49;;;;;;;3.50;1.60;;;;;;;;;;5084174;28;20217;-47
2022/08/29 12:37:25;;;;;;;3.73;2.10;;;;;;;;;;5094566;28;20206;-46
2022/08/29 12:40:01;;;;;;;3.40;1.70;;;;;;;;;;5094023;28;20654;-47
2022/08/29 12:42:31;;;;;;;2.47;1.40;;;;;;;;;;5094410;28;20201;-48
2022/08/29 12:45:00;;;;;;;1.87;1.57;;;;;;;;;;5094382;28;20200;-48
2022/08/29 12:47:27;;;;;;;4.23;1.50;;;;;;;;;;5094239;28;20228;-48
2022/08/29 12:49:55;;;;;;;1.70;1.40;;;;;;;;;;5093757;28;20220;-48
2022/08/29 12:52:23;;;;;;;2.20;1.53;;;;;;;;;;5093733;28;20236;-47
2022/08/29 12:54:50;;;;;;;2.53;1.57;;;;;;;;;;5093871;28;20202;-47
2022/08/29 12:57:18;;;;;;;2.20;1.60;;;;;;;;;;5093880;28;20293;-48
2022/08/29 12:59:46;;;;;;;4.20;1.83;;;;;;;;;;5094122;28;20199;-47
2022/08/29 13:02:23;;;;;;;1.93;1.60;;;;;;;;;;5094252;28;20203;-48
2022/08/29 13:04:49;;;;;;;1.77;1.50;;;;;;;;;;5092762;28;20302;-49
2022/08/29 13:07:16;;;;;;;1.80;1.40;;;;;;;;;;5093466;28;20326;-47
2022/08/29 13:09:43;;;;;;;2.03;1.40;;;;;;;;;;5093555;28;20203;-48
2022/08/29 13:12:10;;;;;;;1.90;1.33;;;;;;;;;;5093567;28;20206;-48
2022/08/29 13:14:45;;;;;;;1.63;1.50;;;;;;;;;;5093957;28;20625;-48
2022/08/29 13:17:12;;;;;;;2.60;1.30;;;;;;;;;;5094037;28;20319;-47
2022/08/29 13:19:39;;;;;;;1.90;1.53;;;;;;;;;;5093720;28;20194;-47
2022/08/29 13:22:05;;;;;;;1.57;1.40;;;;;;;;;;5091832;28;20228;-48
2022/08/29 13:24:32;;;;;;;3.23;1.43;;;;;;;;;;5093534;28;20198;-47
2022/08/29 13:26:59;;;;;;;1.63;1.50;;;;;;;;;;5093506;28;20250;-48
2022/08/29 13:29:28;;;;;;;2.23;1.30;;;;;;;;;;5093402;28;20202;-49
2022/08/29 13:32:12;;;;;;;5.37;1.60;;;;;;;;;;5093269;28;20197;-48
2022/08/29 13:34:57;;;;;;;5.13;1.17;;;;;;;;;;5093274;28;20200;-47
2022/08/29 13:37:27;;;;;;;1.50;1.33;;;;;;;;;;5093100;28;20204;-48
2022/08/29 13:39:53;;;;;;;2.13;1.30;;;;;;;;;;5093109;28;20200;-48
2022/08/29 13:42:20;;;;;;;2.93;1.30;;;;;;;;;;5092752;28;20300;-46
2022/08/29 13:45:04;;;;;;;2.30;1.20;;;;;;;;;;5093015;28;20299;-48
2022/08/29 13:47:32;;;;;;;2.27;1.37;;;;;;;;;;5091249;28;20577;-46
2022/08/29 13:50:00;;;;;;;3.83;1.50;;;;;;;;;;5094209;28;20627;-46
2022/08/29 13:52:26;;;;;;;1.47;1.23;;;;;;;;;;5092667;28;20646;-47
2022/08/29 13:54:52;;;;;;;1.93;1.60;;;;;;;;;;5092191;28;20255;-48
2022/08/29 13:57:19;;;;;;;1.57;1.10;;;;;;;;;;5092959;28;20202;-46
2022/08/29 13:59:45;;;;;;;1.30;1.03;;;;;;;;;;5093386;28;20205;-47
2022/08/29 14:02:13;;;;;;;3.17;1.27;;;;;;;;;;5112696;28;20190;-48
2022/08/29 14:04:39;;;;;;;1.80;1.13;;;;;;;;;;5111197;28;20235;-49
2022/08/29 14:07:06;;;;;;;1.30;1.20;;;;;;;;;;5110981;28;20240;-48
2022/08/29 14:09:34;;;;;;;3.07;1.40;;;;;;;;;;5112342;28;20197;-48
2022/08/29 14:12:00;;;;;;;2.73;1.40;;;;;;;;;;5112234;28;20200;-49
2022/08/29 14:14:26;;;;;;;1.40;1.30;;;;;;;;;;5112204;28;20226;-49
2022/08/29 14:16:53;;;;;;;1.90;1.27;;;;;;;;;;5112581;28;20576;-49
2022/08/29 14:19:19;;;;;;;3.70;1.27;;;;;;;;;;5113065;28;20257;-49
2022/08/29 14:21:45;;;;;;;1.70;1.40;;;;;;;;;;5112788;28;20692;-49
2022/08/29 14:24:12;;;;;;;1.73;1.23;;;;;;;;;;5112323;28;20187;-50
2022/08/29 14:26:38;;;;;;;1.50;1.40;;;;;;;;;;5111180;28;20192;-49
2022/08/29 14:29:04;;;;;;;1.40;1.20;;;;;;;;;;5113214;28;20683;-50
2022/08/29 14:31:31;;;;;;;2.50;1.37;;;;;;;;;;5113077;28;20213;-49
2022/08/29 14:33:57;;;;;;;1.43;1.23;;;;;;;;;;5112935;28;20253;-49
2022/08/29 14:36:23;;;;;;;2.20;1.40;;;;;;;;;;5113001;28;20195;-50
2022/08/29 14:38:49;;;;;;;2.10;1.30;;;;;;;;;;5112985;28;20560;-49
2022/08/29 14:41:16;;;;;;;3.20;1.50;;;;;;;;;;5113106;28;20194;-49
2022/08/29 14:43:42;;;;;;;1.37;1.27;;;;;;;;;;5112980;28;20209;-49
2022/08/29 14:46:08;;;;;;;1.23;0.97;;;;;;;;;;5112814;28;20190;-50
2022/08/29 14:48:34;;;;;;;2.50;1.40;;;;;;;;;;5113036;28;20701;-49